createdAt,value
2019-01-23T07:35:57.502Z,49.40
2019-01-23T07:38:27.969Z,38.35
2019-01-23T07:40:59.117Z,45.33
2019-01-23T07:43:30.011Z,42.17
2019-01-23T07:46:00.465Z,51.88
2019-01-23T07:48:31.004Z,39.23
2019-01-23T07:51:01.707Z,32.78
2019-01-23T07:53:43.562Z,39.00
2019-01-23T07:58:52.481Z,36.95
2019-01-23T08:01:22.514Z,38.35
2019-01-23T08:06:24.398Z,37.03
2019-01-23T08:08:54.874Z,35.80
2019-01-23T08:11:25.448Z,31.80
2019-01-23T08:14:02.210Z,35.58
2019-01-23T08:16:33.584Z,34.60
2019-01-23T08:19:04.433Z,31.05
2019-01-23T08:21:36.125Z,33.38
2019-01-23T08:24:06.625Z,31.40
2019-01-23T08:26:37.648Z,33.88
2019-01-23T08:29:10.940Z,37.38
2019-01-23T08:31:43.613Z,39.67
2019-01-23T08:37:10.641Z,34.08
2019-01-23T08:42:43.553Z,40.98
2019-01-23T08:56:59.636Z,34.98
2019-01-23T09:06:04.389Z,29.23
2019-01-23T09:11:31.458Z,33.75
2019-01-23T09:26:08.425Z,32.85
2019-01-23T09:32:01.450Z,32.40
2019-01-23T09:35:06.394Z,33.65
2019-01-23T09:48:32.373Z,32.63
2019-01-23T09:52:47.165Z,31.52
2019-01-23T09:55:25.159Z,26.75
2019-01-23T10:07:44.820Z,38.00
2019-01-23T10:13:35.899Z,34.25
2019-01-23T10:16:47.779Z,31.10
2019-01-23T10:19:39.319Z,34.27
2019-01-23T10:22:28.885Z,40.90
2019-01-23T10:25:02.076Z,30.60
2019-01-23T10:27:32.437Z,34.85
2019-01-23T10:30:03.848Z,40.73
2019-01-23T10:32:39.574Z,35.17
2019-01-23T10:38:06.436Z,34.43
2019-01-23T10:40:57.671Z,37.80
2019-01-23T10:43:29.581Z,39.78
2019-01-23T10:46:00.054Z,61.28
2019-01-23T10:48:30.680Z,33.45
2019-01-23T10:51:03.743Z,35.95
2019-01-23T10:53:34.206Z,38.20
2019-01-23T10:56:04.922Z,41.60
2019-01-23T11:13:00.792Z,37.38
2019-01-23T11:15:32.378Z,52.60
2019-01-23T11:18:03.192Z,46.55
2019-01-23T11:20:35.889Z,40.08
2019-01-23T11:23:06.631Z,34.05
2019-01-23T11:25:37.801Z,34.50
2019-01-23T11:28:08.807Z,37.67
2019-01-23T11:30:39.194Z,33.58
2019-01-23T11:33:09.891Z,34.73
2019-01-23T11:35:40.559Z,38.67
2019-01-23T11:38:11.022Z,30.27
2019-01-23T11:40:43.565Z,42.27
2019-01-23T11:43:14.114Z,33.98
2019-01-23T11:45:45.890Z,34.88
2019-01-23T11:48:16.736Z,31.23
2019-01-23T11:50:49.111Z,38.63
2019-01-23T11:53:20.436Z,39.48
2019-01-23T11:55:51.976Z,29.48
2019-01-23T11:58:32.007Z,31.87
2019-01-23T12:10:05.539Z,46.68
2019-01-23T12:12:36.328Z,43.52
2019-01-23T12:17:56.102Z,36.88
2019-01-23T12:20:26.825Z,41.60
2019-01-23T12:26:58.485Z,35.10
2019-01-23T12:29:35.312Z,37.00
2019-01-23T12:32:14.423Z,41.63
2019-01-23T12:35:47.076Z,37.63
2019-01-23T12:38:35.733Z,35.73
2019-01-23T12:41:06.811Z,37.90
2019-01-23T12:43:37.603Z,48.95
2019-01-23T12:46:09.606Z,45.20
2019-01-23T12:48:45.212Z,50.63
2019-01-23T12:53:58.422Z,44.03
2019-01-23T12:56:31.694Z,41.70
2019-01-23T12:59:17.709Z,35.25
2019-01-23T13:02:09.596Z,44.03
2019-01-23T13:05:23.206Z,40.52
2019-01-23T13:14:03.910Z,41.25
2019-01-23T13:19:16.144Z,36.85
2019-01-23T13:21:46.788Z,46.88
2019-01-23T13:24:18.359Z,39.95
2019-01-23T13:26:51.333Z,44.10
2019-01-23T13:32:16.610Z,40.20
2019-01-23T13:34:49.152Z,39.50
2019-01-23T13:40:25.497Z,46.75
2019-01-23T13:42:58.018Z,39.10
2019-01-23T13:48:27.729Z,44.67
2019-01-23T13:50:58.215Z,36.30
2019-01-23T13:56:11.871Z,31.20
2019-01-23T13:59:05.954Z,39.98
2019-01-23T14:01:38.696Z,41.18
2019-01-23T14:09:38.688Z,46.73
2019-01-23T14:12:16.706Z,33.28
2019-01-23T14:14:49.006Z,48.73
2019-01-23T14:17:19.827Z,34.13
2019-01-23T14:19:50.570Z,29.35
2019-01-23T14:22:22.828Z,24.65
2019-01-23T14:24:54.892Z,31.60
2019-01-23T14:27:25.311Z,31.12
2019-01-23T14:29:56.044Z,33.13
2019-01-23T14:32:26.348Z,32.40
2019-01-23T14:34:56.725Z,33.30
2019-01-23T14:37:27.229Z,29.95
2019-01-23T14:39:57.653Z,29.92
2019-01-23T14:42:28.006Z,31.15
2019-01-23T14:44:58.354Z,25.62
2019-01-23T14:47:29.140Z,28.62
2019-01-23T14:49:59.937Z,25.17
2019-01-23T14:52:30.406Z,25.40
2019-01-23T14:55:00.835Z,27.07
2019-01-23T14:57:31.446Z,27.00
2019-01-23T15:00:02.002Z,39.03
2019-01-23T15:02:34.076Z,28.20
2019-01-23T15:05:05.468Z,29.18
2019-01-23T15:07:36.106Z,26.77
2019-01-23T15:10:10.537Z,29.75
2019-01-23T15:12:41.246Z,39.48
2019-01-23T15:15:11.952Z,30.10
2019-01-23T15:17:44.549Z,28.12
2019-01-23T15:20:21.191Z,29.10
2019-01-23T15:22:51.908Z,30.00
2019-01-23T15:25:22.701Z,27.05
2019-01-23T15:27:53.330Z,25.57
2019-01-23T15:30:23.794Z,28.35
2019-01-23T15:32:54.422Z,30.48
2019-01-23T15:35:24.796Z,27.95
2019-01-23T15:37:55.124Z,27.13
2019-01-23T15:40:27.718Z,25.12
2019-01-23T15:42:58.433Z,24.65
2019-01-23T15:45:28.764Z,26.27
2019-01-23T15:47:59.084Z,24.43
2019-01-23T15:50:29.459Z,24.75
2019-01-23T15:52:59.858Z,23.70
2019-01-23T15:55:30.114Z,22.32
2019-01-23T15:58:00.555Z,21.70
2019-01-23T16:00:32.321Z,22.77
2019-01-23T16:03:02.991Z,23.60
2019-01-23T16:05:33.336Z,24.95
2019-01-23T16:08:03.844Z,25.77
2019-01-23T16:10:34.253Z,19.50
2019-01-23T16:13:04.587Z,22.58
2019-01-23T16:15:34.860Z,25.97
2019-01-23T16:18:05.359Z,24.27
2019-01-23T16:20:35.899Z,30.72
2019-01-23T16:23:06.099Z,27.30
2019-01-23T16:25:37.723Z,28.20
2019-01-23T16:28:07.920Z,29.35
2019-01-23T16:30:39.320Z,24.12
2019-01-23T16:33:09.796Z,28.17
2019-01-23T16:35:40.192Z,26.68
2019-01-23T16:38:11.442Z,23.10
2019-01-23T16:40:42.745Z,27.13
2019-01-23T16:43:13.205Z,25.72
2019-01-23T16:45:43.620Z,22.65
2019-01-23T16:48:15.199Z,26.65
2019-01-23T16:50:45.584Z,25.50
2019-01-23T16:53:16.182Z,25.37
2019-01-23T16:55:46.541Z,26.65
2019-01-23T16:58:16.972Z,24.32
2019-01-23T17:00:47.359Z,26.48
2019-01-23T17:03:17.971Z,25.57
2019-01-23T17:05:48.363Z,25.95
2019-01-23T17:08:18.784Z,31.30
2019-01-23T17:10:49.275Z,28.17
2019-01-23T17:13:19.677Z,25.82
2019-01-23T17:15:51.918Z,30.32
2019-01-23T17:18:22.297Z,34.88
2019-01-23T17:20:52.961Z,27.85
2019-01-23T17:23:23.430Z,27.20
2019-01-23T17:25:53.843Z,25.52
2019-01-23T17:28:24.324Z,24.27
2019-01-23T17:30:54.815Z,24.70
2019-01-23T17:33:25.277Z,24.27
2019-01-23T17:35:55.784Z,23.30
2019-01-23T17:38:26.335Z,25.40
2019-01-23T17:40:56.832Z,26.62
2019-01-23T17:43:28.078Z,23.18
2019-01-23T17:45:58.548Z,26.57
2019-01-23T17:48:28.977Z,26.55
2019-01-23T17:50:59.374Z,26.68
2019-01-23T17:53:29.816Z,27.00
2019-01-23T17:56:00.274Z,24.12
2019-01-23T17:58:30.731Z,24.67
2019-01-23T18:01:01.297Z,26.70
2019-01-23T18:03:31.781Z,23.27
2019-01-23T18:06:02.153Z,27.17
2019-01-23T18:08:32.508Z,27.75
2019-01-23T18:11:02.935Z,21.52
2019-01-23T18:13:33.442Z,25.85
2019-01-23T18:16:07.474Z,24.30
2019-01-23T18:18:37.889Z,25.08
2019-01-23T18:21:08.375Z,30.40
2019-01-23T18:23:38.871Z,37.50
2019-01-23T18:26:09.262Z,28.62
2019-01-23T18:28:39.800Z,29.32
2019-01-23T18:31:38.401Z,28.17
2019-01-23T18:34:50.242Z,25.23
2019-01-23T18:37:46.623Z,26.27
2019-01-23T18:40:44.246Z,28.42
2019-01-23T18:43:38.769Z,28.65
2019-01-23T18:47:00.390Z,24.30
2019-01-23T18:50:34.393Z,26.50
2019-01-23T18:53:05.883Z,24.95
2019-01-23T18:55:36.209Z,21.87
2019-01-23T18:58:06.524Z,29.32
2019-01-23T19:00:36.899Z,27.70
2019-01-23T19:03:08.569Z,26.25
2019-01-23T19:05:38.996Z,23.98
2019-01-23T19:08:10.681Z,27.77
2019-01-23T19:10:41.073Z,24.02
2019-01-23T19:13:11.610Z,27.67
2019-01-23T19:15:42.057Z,23.20
2019-01-23T19:18:12.501Z,22.75
2019-01-23T19:20:43.011Z,24.30
2019-01-23T19:23:13.406Z,24.67
2019-01-23T19:25:43.882Z,27.67
2019-01-23T19:28:14.249Z,25.60
2019-01-23T19:30:44.790Z,25.70
2019-01-23T19:33:15.232Z,20.72
2019-01-23T19:35:45.641Z,22.67
2019-01-23T19:38:16.044Z,24.07
2019-01-23T19:40:46.512Z,26.30
2019-01-23T19:43:16.956Z,24.32
2019-01-23T19:45:47.484Z,21.40
2019-01-23T19:48:18.136Z,27.80
2019-01-23T19:50:48.451Z,24.70
2019-01-23T19:53:18.971Z,22.07
2019-01-23T19:55:49.473Z,21.20
2019-01-23T19:58:19.833Z,20.37
2019-01-23T20:00:50.205Z,22.15
2019-01-23T20:03:20.875Z,21.05
2019-01-23T20:05:51.383Z,23.22
2019-01-23T20:08:21.883Z,21.40
2019-01-23T20:10:52.402Z,22.62
2019-01-23T20:13:22.882Z,22.40
2019-01-23T20:15:53.413Z,20.85
2019-01-23T20:18:24.895Z,19.70
2019-01-23T20:20:55.326Z,21.93
2019-01-23T20:23:25.710Z,22.95
2019-01-23T20:25:56.164Z,18.17
2019-01-23T20:28:26.677Z,20.92
2019-01-23T20:30:57.117Z,18.95
2019-01-23T20:33:28.130Z,22.35
2019-01-23T20:35:58.832Z,19.57
2019-01-23T20:38:29.283Z,19.55
2019-01-23T20:40:59.872Z,18.07
2019-01-23T20:43:30.444Z,18.62
2019-01-23T20:46:00.772Z,19.12
2019-01-23T20:48:32.250Z,18.30
2019-01-23T20:51:03.132Z,20.57
2019-01-23T20:53:33.463Z,17.75
2019-01-23T20:56:03.954Z,20.95
2019-01-23T20:58:34.566Z,18.77
2019-01-23T21:01:04.970Z,19.17
2019-01-23T21:03:35.382Z,16.93
2019-01-23T21:06:05.735Z,19.10
2019-01-23T21:08:36.165Z,17.00
2019-01-23T21:11:06.741Z,17.98
2019-01-23T21:13:38.953Z,16.87
2019-01-23T21:16:09.312Z,18.50
2019-01-23T21:18:39.842Z,18.07
2019-01-23T21:21:10.316Z,19.12
2019-01-23T21:23:40.684Z,17.77
2019-01-23T21:26:11.082Z,15.40
2019-01-23T21:28:41.551Z,16.73
2019-01-23T21:31:11.937Z,17.32
2019-01-23T21:33:42.448Z,17.12
2019-01-23T21:36:13.810Z,18.02
2019-01-23T21:38:44.165Z,18.10
2019-01-23T21:41:14.524Z,20.35
2019-01-23T21:43:44.949Z,16.45
2019-01-23T21:46:15.276Z,17.35
2019-01-23T21:48:45.768Z,16.27
2019-01-23T21:51:16.224Z,18.82
2019-01-23T21:53:46.766Z,17.20
2019-01-23T21:56:17.118Z,17.00
2019-01-23T21:58:47.485Z,17.87
2019-01-23T22:01:17.950Z,17.25
2019-01-23T22:03:49.466Z,18.27
2019-01-23T22:06:20.051Z,15.93
2019-01-23T22:08:50.665Z,15.85
2019-01-23T22:11:21.137Z,17.10
2019-01-23T22:13:51.619Z,17.37
2019-01-23T22:16:23.044Z,17.40
2019-01-23T22:18:53.421Z,15.83
2019-01-23T22:21:23.868Z,16.27
2019-01-23T22:23:54.300Z,16.30
2019-01-23T22:26:24.774Z,16.97
2019-01-23T22:28:55.179Z,15.20
2019-01-23T22:31:25.524Z,15.85
2019-01-23T22:33:56.398Z,18.23
2019-01-23T22:36:27.894Z,16.52
2019-01-23T22:38:58.358Z,16.27
2019-01-23T22:41:28.796Z,15.80
2019-01-23T22:43:59.056Z,13.75
2019-01-23T22:46:29.461Z,15.88
2019-01-23T22:48:59.956Z,14.43
2019-01-23T22:51:30.386Z,15.58
2019-01-23T22:54:00.906Z,16.10
2019-01-23T22:56:31.151Z,14.28
2019-01-23T22:59:01.659Z,16.05
2019-01-23T23:01:32.425Z,18.50
2019-01-23T23:04:03.725Z,16.37
2019-01-23T23:06:34.127Z,17.37
2019-01-23T23:09:08.191Z,16.10
2019-01-23T23:11:39.016Z,19.37
2019-01-23T23:14:09.398Z,14.55
2019-01-23T23:16:39.674Z,16.10
2019-01-23T23:19:10.068Z,15.43
2019-01-23T23:21:40.486Z,16.85
2019-01-23T23:24:11.007Z,15.80
2019-01-23T23:26:41.402Z,14.38
2019-01-23T23:29:11.955Z,13.72
2019-01-23T23:31:42.418Z,15.43
2019-01-23T23:34:12.914Z,13.00
2019-01-23T23:36:43.414Z,15.15
2019-01-23T23:39:13.748Z,14.95
2019-01-23T23:41:47.220Z,14.47
2019-01-23T23:44:17.748Z,15.18
2019-01-23T23:46:48.375Z,13.75
2019-01-23T23:49:18.802Z,14.00
2019-01-23T23:51:49.240Z,13.00
2019-01-23T23:54:19.660Z,14.23
2019-01-23T23:56:51.218Z,13.25
2019-01-23T23:59:21.742Z,15.60
